createdAt,value
2019-01-29T00:01:27.490Z,74.50
2019-01-29T00:03:55.962Z,74.70
2019-01-29T00:06:30.489Z,74.70
2019-01-29T00:08:58.473Z,74.30
2019-01-29T00:11:28.005Z,73.60
2019-01-29T00:13:55.905Z,74.00
2019-01-29T00:16:24.262Z,74.70
2019-01-29T00:18:52.444Z,74.60
2019-01-29T00:21:20.700Z,75.70
2019-01-29T00:23:48.849Z,76.00
2019-01-29T00:26:17.132Z,76.10
2019-01-29T00:28:45.479Z,76.00
2019-01-29T00:31:13.892Z,75.40
2019-01-29T00:33:42.168Z,76.40
2019-01-29T00:36:26.079Z,76.00
2019-01-29T00:38:54.087Z,76.00
2019-01-29T00:41:22.104Z,76.50
2019-01-29T00:43:50.389Z,75.60
2019-01-29T00:46:18.298Z,75.40
2019-01-29T00:48:46.327Z,75.30
2019-01-29T00:51:14.230Z,75.00
2019-01-29T00:53:42.185Z,75.60
2019-01-29T00:56:10.305Z,75.60
2019-01-29T00:58:38.427Z,75.30
2019-01-29T01:01:06.608Z,75.20
2019-01-29T01:03:34.523Z,75.10
2019-01-29T01:06:03.106Z,74.70
2019-01-29T01:08:31.557Z,75.70
2019-01-29T01:10:59.659Z,74.80
2019-01-29T01:13:27.577Z,74.90
2019-01-29T01:15:55.603Z,75.50
2019-01-29T01:18:23.608Z,76.90
2019-01-29T01:20:51.565Z,77.90
2019-01-29T01:23:19.496Z,77.90
2019-01-29T01:25:47.489Z,78.60
2019-01-29T01:28:15.412Z,78.20
2019-01-29T01:30:43.336Z,77.40
2019-01-29T01:33:11.671Z,77.60
2019-01-29T01:35:39.526Z,78.60
2019-01-29T01:38:07.578Z,78.20
2019-01-29T01:40:36.036Z,78.00
2019-01-29T01:43:04.268Z,77.30
2019-01-29T01:45:32.172Z,77.30
2019-01-29T01:48:00.262Z,77.90
2019-01-29T01:50:28.614Z,76.80
2019-01-29T01:52:59.414Z,75.20
2019-01-29T01:55:27.098Z,75.90
2019-01-29T01:57:55.263Z,76.00
2019-01-29T02:00:23.613Z,75.60
2019-01-29T02:02:51.541Z,75.80
2019-01-29T02:05:20.128Z,75.80
2019-01-29T02:07:48.431Z,75.40
2019-01-29T02:10:28.095Z,75.40
2019-01-29T02:12:56.381Z,76.80
2019-01-29T02:15:24.652Z,76.10
2019-01-29T02:17:53.017Z,77.20
2019-01-29T02:20:21.740Z,76.90
2019-01-29T02:22:51.434Z,77.30
2019-01-29T02:25:19.908Z,76.70
2019-01-29T02:27:48.206Z,76.80
2019-01-29T02:30:18.817Z,77.30
2019-01-29T02:32:47.089Z,77.40
2019-01-29T02:35:15.558Z,77.10
2019-01-29T02:37:44.063Z,76.10
2019-01-29T02:40:20.756Z,75.80
2019-01-29T02:42:48.690Z,75.80
2019-01-29T02:45:17.165Z,75.90
2019-01-29T02:47:45.674Z,75.90
2019-01-29T02:50:14.247Z,75.90
2019-01-29T02:52:42.741Z,75.90
2019-01-29T02:55:13.148Z,75.90
2019-01-29T02:57:41.062Z,76.10
2019-01-29T03:00:17.893Z,76.40
2019-01-29T03:02:46.153Z,75.40
2019-01-29T03:05:14.826Z,73.80
2019-01-29T03:07:43.350Z,74.20
2019-01-29T03:10:12.544Z,74.20
2019-01-29T03:12:40.612Z,73.70
2019-01-29T03:15:11.995Z,73.90
2019-01-29T03:17:40.479Z,74.30
2019-01-29T03:20:09.479Z,74.70
2019-01-29T03:22:37.417Z,73.80
2019-01-29T03:25:06.039Z,73.80
2019-01-29T03:27:34.412Z,73.50
2019-01-29T03:30:02.493Z,73.30
2019-01-29T03:32:30.852Z,72.60
2019-01-29T03:34:58.734Z,72.10
2019-01-29T03:37:26.639Z,72.50
2019-01-29T03:39:54.722Z,73.60
2019-01-29T03:42:22.681Z,74.10
2019-01-29T03:44:50.561Z,73.90
2019-01-29T03:47:18.862Z,73.90
2019-01-29T03:49:47.075Z,73.60
2019-01-29T03:52:15.317Z,73.40
2019-01-29T03:54:43.345Z,74.30
2019-01-29T03:57:11.587Z,76.70
2019-01-29T03:59:39.525Z,78.10
2019-01-29T04:02:07.457Z,80.00
2019-01-29T04:04:35.876Z,79.70
2019-01-29T04:07:04.005Z,81.00
2019-01-29T04:09:31.989Z,76.70
2019-01-29T04:12:00.254Z,74.10
2019-01-29T04:14:28.752Z,77.10
2019-01-29T04:16:56.643Z,78.80
2019-01-29T04:19:26.795Z,76.50
2019-01-29T04:21:54.978Z,75.60
2019-01-29T04:24:23.088Z,76.50
2019-01-29T04:26:51.120Z,74.70
2019-01-29T04:29:19.087Z,76.10
2019-01-29T04:31:46.973Z,77.50
2019-01-29T04:34:15.168Z,78.70
2019-01-29T04:36:43.122Z,78.90
2019-01-29T04:39:11.094Z,79.30
2019-01-29T04:41:39.099Z,80.00
2019-01-29T04:44:07.228Z,80.00
2019-01-29T04:46:35.152Z,81.30
2019-01-29T04:49:03.142Z,81.70
2019-01-29T04:51:30.954Z,81.50
2019-01-29T04:53:59.377Z,80.80
2019-01-29T04:56:28.261Z,82.30
2019-01-29T04:58:56.156Z,82.20
2019-01-29T05:01:24.136Z,81.30
2019-01-29T05:03:52.136Z,78.40
2019-01-29T05:06:20.062Z,80.20
2019-01-29T05:08:48.017Z,81.00
2019-01-29T05:11:21.362Z,80.60
2019-01-29T05:13:49.348Z,80.60
2019-01-29T05:16:17.293Z,81.50
2019-01-29T05:18:45.335Z,81.40
2019-01-29T05:21:13.341Z,81.60
2019-01-29T05:23:41.293Z,82.50
2019-01-29T05:26:09.173Z,83.00
2019-01-29T05:28:37.060Z,82.90
2019-01-29T05:31:05.055Z,83.40
2019-01-29T05:33:33.388Z,84.00
2019-01-29T05:36:01.301Z,84.40
2019-01-29T05:38:29.906Z,83.80
2019-01-29T05:40:58.214Z,83.30
2019-01-29T05:43:26.178Z,83.10
2019-01-29T05:45:54.385Z,82.30
2019-01-29T05:48:22.408Z,82.70
2019-01-29T05:50:50.261Z,83.20
2019-01-29T05:53:18.259Z,83.60
2019-01-29T05:55:46.272Z,83.80
2019-01-29T05:58:14.144Z,83.30
2019-01-29T06:00:42.115Z,83.90
2019-01-29T06:03:10.083Z,83.60
2019-01-29T06:05:38.267Z,83.70
2019-01-29T06:08:06.350Z,83.80
2019-01-29T06:10:34.499Z,83.90
2019-01-29T06:13:02.480Z,84.10
2019-01-29T06:15:30.751Z,84.00
2019-01-29T06:17:58.753Z,84.20
2019-01-29T06:20:27.132Z,84.90
2019-01-29T06:22:55.542Z,84.90
2019-01-29T06:25:24.022Z,84.90
2019-01-29T06:27:52.171Z,84.90
2019-01-29T06:30:20.817Z,84.90
2019-01-29T06:32:49.036Z,84.90
2019-01-29T06:35:18.009Z,85.00
2019-01-29T06:37:46.252Z,84.90
2019-01-29T06:40:16.643Z,85.30
2019-01-29T06:42:44.945Z,85.70
2019-01-29T06:45:14.208Z,85.40
2019-01-29T06:47:42.397Z,85.50
2019-01-29T06:50:12.887Z,85.80
2019-01-29T06:52:40.768Z,85.90
2019-01-29T06:55:10.722Z,85.80
2019-01-29T06:57:38.614Z,86.00
2019-01-29T07:00:09.250Z,86.40
2019-01-29T07:02:37.468Z,86.90
2019-01-29T07:05:06.149Z,87.30
2019-01-29T07:07:34.018Z,86.80
2019-01-29T07:10:02.005Z,87.10
2019-01-29T07:12:29.954Z,88.00
2019-01-29T07:14:57.878Z,88.50
2019-01-29T07:17:31.424Z,88.10
2019-01-29T07:20:02.359Z,87.60
2019-01-29T07:22:30.408Z,87.20
2019-01-29T07:24:58.401Z,87.60
2019-01-29T07:27:26.489Z,87.90
2019-01-29T07:29:54.831Z,88.50
2019-01-29T07:32:22.717Z,88.70
2019-01-29T07:34:50.655Z,87.80
2019-01-29T07:37:22.022Z,88.70
2019-01-29T07:39:49.191Z,89.30
2019-01-29T07:42:17.522Z,89.30
2019-01-29T07:44:45.834Z,89.60
2019-01-29T07:47:14.320Z,89.70
2019-01-29T07:49:42.429Z,89.80
2019-01-29T07:52:10.390Z,90.10
2019-01-29T07:54:38.422Z,90.20
2019-01-29T07:57:06.362Z,90.20
2019-01-29T07:59:34.337Z,90.20
2019-01-29T08:02:02.362Z,89.70
2019-01-29T08:04:30.210Z,88.60
2019-01-29T08:06:58.190Z,88.50
2019-01-29T08:09:26.108Z,88.80
2019-01-29T08:11:54.154Z,89.40
2019-01-29T08:14:39.209Z,89.20
2019-01-29T08:17:07.362Z,89.60
2019-01-29T08:19:35.323Z,89.30
2019-01-29T08:22:03.513Z,89.10
2019-01-29T08:24:31.922Z,89.70
2019-01-29T08:27:00.006Z,90.00
2019-01-29T08:29:28.064Z,86.10
2019-01-29T08:31:55.988Z,85.60
2019-01-29T08:34:23.903Z,85.20
2019-01-29T08:36:51.804Z,86.10
2019-01-29T08:39:19.790Z,87.20
2019-01-29T08:41:47.772Z,85.80
2019-01-29T08:44:15.878Z,85.20
2019-01-29T08:46:43.836Z,85.20
2019-01-29T08:49:11.932Z,86.10
2019-01-29T08:51:39.981Z,84.20
2019-01-29T08:54:08.318Z,83.60
2019-01-29T08:56:36.299Z,84.10
2019-01-29T08:59:04.284Z,84.20
2019-01-29T09:01:32.324Z,84.20
2019-01-29T09:04:00.316Z,83.40
2019-01-29T09:06:30.374Z,82.70
2019-01-29T09:08:58.489Z,82.00
2019-01-29T09:11:28.102Z,81.20
2019-01-29T09:13:56.119Z,81.20
2019-01-29T09:16:24.159Z,80.70
2019-01-29T09:18:52.405Z,81.00
2019-01-29T09:21:20.302Z,80.30
2019-01-29T09:23:48.289Z,78.50
2019-01-29T09:26:16.205Z,76.60
2019-01-29T09:28:44.109Z,74.60
2019-01-29T09:31:12.032Z,74.20
2019-01-29T09:33:40.362Z,76.70
2019-01-29T09:36:08.225Z,75.10
2019-01-29T09:38:36.206Z,72.50
2019-01-29T09:41:04.484Z,75.30
2019-01-29T09:43:32.433Z,74.70
2019-01-29T09:46:12.837Z,73.20
2019-01-29T09:48:41.476Z,72.00
2019-01-29T09:51:09.805Z,71.10
2019-01-29T09:53:38.342Z,71.50
2019-01-29T09:56:06.538Z,70.20
2019-01-29T09:58:34.502Z,72.70
2019-01-29T10:01:02.859Z,70.90
2019-01-29T10:03:31.423Z,68.50
2019-01-29T10:05:59.399Z,68.40
2019-01-29T10:08:27.814Z,68.00
2019-01-29T10:10:55.767Z,67.90
2019-01-29T10:13:23.971Z,67.80
2019-01-29T10:15:52.138Z,68.70
2019-01-29T10:18:20.521Z,68.10
2019-01-29T10:20:49.008Z,67.70
2019-01-29T10:23:17.416Z,67.10
2019-01-29T10:25:45.823Z,64.70
2019-01-29T10:28:14.250Z,63.40
2019-01-29T10:30:42.781Z,62.30
2019-01-29T10:33:11.319Z,61.70
2019-01-29T10:35:39.641Z,63.60
2019-01-29T10:38:07.924Z,60.50
2019-01-29T10:40:36.068Z,60.30
2019-01-29T10:43:04.756Z,61.20
2019-01-29T10:45:33.059Z,58.30
2019-01-29T10:48:01.589Z,56.50
2019-01-29T10:50:30.372Z,56.70
2019-01-29T10:52:58.874Z,54.10
2019-01-29T10:55:27.404Z,53.00
2019-01-29T10:57:55.948Z,52.00
2019-01-29T11:00:26.908Z,52.60
2019-01-29T11:02:55.340Z,51.50
2019-01-29T11:05:24.255Z,52.10
2019-01-29T11:07:52.607Z,51.10
2019-01-29T11:10:21.341Z,49.30
2019-01-29T11:12:49.326Z,50.30
2019-01-29T11:15:31.994Z,48.10
2019-01-29T11:18:00.680Z,48.70
2019-01-29T11:20:29.341Z,48.10
2019-01-29T11:22:57.645Z,48.90
2019-01-29T11:25:27.402Z,48.90
2019-01-29T11:27:55.816Z,49.10
2019-01-29T11:30:26.388Z,47.80
2019-01-29T11:32:54.605Z,46.30
2019-01-29T11:35:22.961Z,45.90
2019-01-29T11:37:51.048Z,45.30
2019-01-29T11:40:21.198Z,44.50
2019-01-29T11:42:49.257Z,43.60
2019-01-29T11:45:24.201Z,43.60
2019-01-29T11:47:52.407Z,44.50
2019-01-29T11:50:20.547Z,42.90
2019-01-29T11:52:48.535Z,42.50
2019-01-29T11:55:16.727Z,43.60
2019-01-29T11:57:44.709Z,45.10
2019-01-29T12:00:18.586Z,45.00
2019-01-29T12:02:46.524Z,45.20
2019-01-29T12:05:14.943Z,42.40
2019-01-29T12:07:43.089Z,45.20
2019-01-29T12:10:12.279Z,44.90
2019-01-29T12:12:40.184Z,43.40
2019-01-29T12:15:34.001Z,44.00
2019-01-29T12:18:02.502Z,42.80
2019-01-29T12:20:30.958Z,42.80
2019-01-29T12:22:59.369Z,41.90
2019-01-29T12:25:27.800Z,40.80
2019-01-29T12:27:55.889Z,42.10
2019-01-29T12:30:24.677Z,41.00
2019-01-29T12:32:53.132Z,39.10
2019-01-29T12:35:21.273Z,39.70
2019-01-29T12:37:49.625Z,40.60
2019-01-29T12:40:17.796Z,42.00
2019-01-29T12:42:46.058Z,41.90
2019-01-29T12:45:14.711Z,42.00
2019-01-29T12:47:42.949Z,39.80
2019-01-29T12:50:15.107Z,41.10
2019-01-29T12:53:11.676Z,41.80
2019-01-29T12:55:40.271Z,41.60
2019-01-29T12:58:08.344Z,41.00
2019-01-29T13:00:43.209Z,41.50
2019-01-29T13:03:11.121Z,41.00
2019-01-29T13:05:39.053Z,40.70
2019-01-29T13:08:07.102Z,38.30
2019-01-29T13:10:35.187Z,38.40
2019-01-29T13:13:04.024Z,38.20
2019-01-29T13:15:50.320Z,38.80
2019-01-29T13:18:37.637Z,38.70
2019-01-29T13:21:06.004Z,38.20
2019-01-29T13:23:34.004Z,37.40
2019-01-29T13:26:01.944Z,35.40
2019-01-29T13:28:29.922Z,35.30
2019-01-29T13:31:37.905Z,35.40
2019-01-29T13:34:05.861Z,35.10
2019-01-29T13:36:33.934Z,35.80
2019-01-29T13:39:01.975Z,37.30
2019-01-29T13:41:30.436Z,34.80
2019-01-29T13:43:58.338Z,34.20
2019-01-29T13:46:27.643Z,34.80
2019-01-29T13:48:55.692Z,34.30
2019-01-29T13:51:24.067Z,34.30
2019-01-29T13:53:51.960Z,35.40
2019-01-29T13:56:20.572Z,34.40
2019-01-29T13:58:48.529Z,33.40
2019-01-29T14:01:16.737Z,33.10
2019-01-29T14:03:44.971Z,34.50
2019-01-29T14:06:13.305Z,33.80
2019-01-29T14:08:41.225Z,33.20
2019-01-29T14:11:14.096Z,34.20
2019-01-29T14:13:42.518Z,33.40
2019-01-29T14:16:12.705Z,33.10
2019-01-29T14:18:40.601Z,32.80
2019-01-29T14:21:08.618Z,34.30
2019-01-29T14:23:36.578Z,34.60
2019-01-29T14:26:04.772Z,34.10
2019-01-29T14:28:32.805Z,34.20
2019-01-29T14:31:00.734Z,35.20
2019-01-29T14:33:29.168Z,36.20
2019-01-29T14:35:58.253Z,36.00
2019-01-29T14:39:09.072Z,36.70
2019-01-29T14:41:37.050Z,37.30
2019-01-29T14:44:07.668Z,37.40
2019-01-29T14:46:35.627Z,37.40
2019-01-29T14:49:03.873Z,38.00
2019-01-29T14:51:32.064Z,37.00
2019-01-29T14:54:00.464Z,37.20
2019-01-29T14:56:30.099Z,36.30
2019-01-29T14:58:58.545Z,36.80
2019-01-29T15:01:28.056Z,35.80
2019-01-29T15:03:56.426Z,36.30
2019-01-29T15:06:32.296Z,36.00
2019-01-29T15:08:54.756Z,36.20
2019-01-29T15:11:24.501Z,36.10
2019-01-29T15:13:52.713Z,35.90
2019-01-29T15:16:43.083Z,35.30
2019-01-29T15:19:14.100Z,35.70
2019-01-29T15:21:42.152Z,35.80
2019-01-29T15:24:10.610Z,36.60
2019-01-29T15:26:39.004Z,36.20
2019-01-29T15:29:06.913Z,37.40
2019-01-29T15:31:35.367Z,39.50
2019-01-29T15:34:03.851Z,38.80
2019-01-29T15:36:32.223Z,38.80
2019-01-29T15:39:00.282Z,38.80
2019-01-29T15:41:29.906Z,39.00
2019-01-29T15:43:57.784Z,37.80
2019-01-29T15:46:25.864Z,38.00
2019-01-29T15:48:54.190Z,39.20
2019-01-29T15:51:22.595Z,39.90
2019-01-29T15:53:50.592Z,39.30
2019-01-29T15:56:18.934Z,39.30
2019-01-29T15:58:47.330Z,39.00
2019-01-29T16:01:15.694Z,40.60
2019-01-29T16:03:43.989Z,40.50
2019-01-29T16:06:11.857Z,41.80
2019-01-29T16:08:39.849Z,44.20
2019-01-29T16:11:07.827Z,45.00
2019-01-29T16:13:35.899Z,46.30
2019-01-29T16:16:24.800Z,47.30
2019-01-29T16:18:52.717Z,48.00
2019-01-29T16:21:20.773Z,48.50
2019-01-29T16:23:48.613Z,48.40
2019-01-29T16:26:16.551Z,48.90
2019-01-29T16:28:44.923Z,49.50
2019-01-29T16:31:13.383Z,49.80
2019-01-29T16:33:41.417Z,50.10
2019-01-29T16:36:09.439Z,50.50
2019-01-29T16:38:37.710Z,51.00
2019-01-29T16:41:05.963Z,51.30
2019-01-29T16:43:34.233Z,51.60
2019-01-29T16:46:02.695Z,52.10
2019-01-29T16:48:31.098Z,52.40
2019-01-29T16:50:59.128Z,52.70
2019-01-29T16:53:27.663Z,53.10
2019-01-29T16:55:55.909Z,53.20
2019-01-29T16:58:24.396Z,52.70
2019-01-29T17:00:52.634Z,53.00
2019-01-29T17:03:20.904Z,53.10
2019-01-29T17:05:49.341Z,52.00
2019-01-29T17:08:17.514Z,52.40
2019-01-29T17:10:45.423Z,52.70
2019-01-29T17:13:13.512Z,52.50
2019-01-29T17:16:24.358Z,52.80
2019-01-29T17:18:50.513Z,52.90
2019-01-29T17:21:18.918Z,52.80
2019-01-29T17:23:46.968Z,53.00
2019-01-29T17:26:15.297Z,53.00
2019-01-29T17:28:43.164Z,53.40
2019-01-29T17:31:11.193Z,53.40
2019-01-29T17:33:40.419Z,53.20
2019-01-29T17:36:09.297Z,53.30
2019-01-29T17:38:44.380Z,53.00
2019-01-29T17:41:06.971Z,51.90
2019-01-29T17:43:35.259Z,52.10
2019-01-29T17:46:03.731Z,52.80
2019-01-29T17:48:32.148Z,53.00
2019-01-29T17:51:00.539Z,53.40
2019-01-29T17:53:28.876Z,53.70
2019-01-29T17:55:57.195Z,53.50
2019-01-29T17:58:25.737Z,54.00
2019-01-29T18:00:57.136Z,53.10
2019-01-29T18:03:25.502Z,55.20
2019-01-29T18:05:53.886Z,54.20
2019-01-29T18:08:22.197Z,54.70
2019-01-29T18:10:50.479Z,55.10
2019-01-29T18:13:18.941Z,55.10
2019-01-29T18:16:28.007Z,55.70
2019-01-29T18:18:54.665Z,56.10
2019-01-29T18:21:23.150Z,56.20
2019-01-29T18:23:51.550Z,56.10
2019-01-29T18:26:19.875Z,56.00
2019-01-29T18:28:52.849Z,56.20
2019-01-29T18:31:21.312Z,56.30
2019-01-29T18:33:49.690Z,56.60
2019-01-29T18:36:17.773Z,56.70
2019-01-29T18:38:46.018Z,56.30
2019-01-29T18:41:14.284Z,56.10
2019-01-29T18:43:42.680Z,56.00
2019-01-29T18:46:10.996Z,55.50
2019-01-29T18:48:38.965Z,55.70
2019-01-29T18:51:06.930Z,55.70
2019-01-29T18:53:34.818Z,55.90
2019-01-29T18:56:02.946Z,56.10
2019-01-29T18:58:30.920Z,56.20
2019-01-29T19:00:58.868Z,56.00
2019-01-29T19:03:26.807Z,56.10
2019-01-29T19:05:54.934Z,56.40
2019-01-29T19:08:23.049Z,56.50
2019-01-29T19:10:51.145Z,56.50
2019-01-29T19:13:19.255Z,56.70
2019-01-29T19:16:35.500Z,56.90
2019-01-29T19:19:01.307Z,56.50
2019-01-29T19:21:30.685Z,56.30
2019-01-29T19:23:58.896Z,56.30
2019-01-29T19:26:28.433Z,56.30
2019-01-29T19:28:56.387Z,55.50
2019-01-29T19:31:24.387Z,56.00
2019-01-29T19:33:52.307Z,56.80
2019-01-29T19:36:20.225Z,57.30
2019-01-29T19:38:48.615Z,56.90
2019-01-29T19:41:16.700Z,57.30
2019-01-29T19:43:45.248Z,57.10
2019-01-29T19:46:13.192Z,57.50
2019-01-29T19:48:41.191Z,57.50
2019-01-29T19:51:09.391Z,57.50
2019-01-29T19:53:37.906Z,57.50
2019-01-29T19:56:05.994Z,57.50
2019-01-29T19:58:33.964Z,57.50
2019-01-29T20:01:02.198Z,57.40
2019-01-29T20:03:30.222Z,57.50
2019-01-29T20:05:58.373Z,57.40
2019-01-29T20:08:27.118Z,57.50
2019-01-29T20:10:54.981Z,57.40
2019-01-29T20:13:23.188Z,57.20
2019-01-29T20:16:18.107Z,57.20
2019-01-29T20:18:48.910Z,57.00
2019-01-29T20:21:16.408Z,57.20
2019-01-29T20:23:44.401Z,57.30
2019-01-29T20:26:12.466Z,57.80
2019-01-29T20:28:42.375Z,57.90
2019-01-29T20:31:10.282Z,57.90
2019-01-29T20:33:38.448Z,57.80
2019-01-29T20:36:06.827Z,57.50
2019-01-29T20:38:35.440Z,57.10
2019-01-29T20:41:03.820Z,57.10
2019-01-29T20:43:31.922Z,57.10
2019-01-29T20:46:00.350Z,57.00
2019-01-29T20:48:28.558Z,57.00
2019-01-29T20:50:56.630Z,57.00
2019-01-29T20:53:24.477Z,57.00
2019-01-29T20:55:52.434Z,57.00
2019-01-29T20:58:20.426Z,57.00
2019-01-29T21:00:48.369Z,57.60
2019-01-29T21:03:16.356Z,57.40
2019-01-29T21:05:44.705Z,57.50
2019-01-29T21:08:12.713Z,57.60
2019-01-29T21:10:40.770Z,57.90
2019-01-29T21:13:10.834Z,57.90
2019-01-29T21:16:20.432Z,57.60
2019-01-29T21:18:46.550Z,57.70
2019-01-29T21:21:14.956Z,57.90
2019-01-29T21:23:43.142Z,58.60
2019-01-29T21:26:57.629Z,58.30
2019-01-29T21:29:23.074Z,58.50
2019-01-29T21:31:51.066Z,58.40
2019-01-29T21:34:19.023Z,58.40
2019-01-29T21:36:47.220Z,59.20
2019-01-29T21:39:15.109Z,59.30
2019-01-29T21:41:42.963Z,59.30
2019-01-29T21:44:11.320Z,59.40
2019-01-29T21:46:39.632Z,59.30
2019-01-29T21:49:07.983Z,59.50
2019-01-29T21:51:35.968Z,59.40
2019-01-29T21:54:04.994Z,59.50
2019-01-29T21:56:33.217Z,59.70
2019-01-29T21:59:01.278Z,59.80
2019-01-29T22:01:31.084Z,59.70
2019-01-29T22:03:59.055Z,60.00
2019-01-29T22:06:28.747Z,59.80
2019-01-29T22:08:57.109Z,60.00
2019-01-29T22:11:25.523Z,60.40
2019-01-29T22:13:54.946Z,60.40
2019-01-29T22:16:57.194Z,60.60
2019-01-29T22:19:25.717Z,61.00
2019-01-29T22:21:53.926Z,61.00
2019-01-29T22:24:22.285Z,60.80
2019-01-29T22:26:50.225Z,60.80
2019-01-29T22:29:23.266Z,60.70
2019-01-29T22:31:48.079Z,60.40
2019-01-29T22:34:16.026Z,60.60
2019-01-29T22:36:43.984Z,60.90
2019-01-29T22:39:11.910Z,61.10
2019-01-29T22:41:40.235Z,61.10
2019-01-29T22:44:08.196Z,61.60
2019-01-29T22:46:36.283Z,61.70
2019-01-29T22:49:05.172Z,61.60
2019-01-29T22:51:33.993Z,62.70
2019-01-29T22:54:02.056Z,61.60
2019-01-29T22:56:30.639Z,62.10
2019-01-29T22:58:58.955Z,62.10
2019-01-29T23:01:34.122Z,62.30
2019-01-29T23:04:31.746Z,62.70
2019-01-29T23:07:17.192Z,63.20
2019-01-29T23:09:45.187Z,62.10
2019-01-29T23:12:13.484Z,62.10
2019-01-29T23:14:41.736Z,62.10
2019-01-29T23:17:09.997Z,61.80
2019-01-29T23:19:38.340Z,61.50
2019-01-29T23:22:06.613Z,61.50
2019-01-29T23:24:34.765Z,62.10
2019-01-29T23:27:02.976Z,62.50
2019-01-29T23:29:31.083Z,62.60
2019-01-29T23:31:59.019Z,63.00
2019-01-29T23:34:26.937Z,63.10
2019-01-29T23:36:55.250Z,63.20
2019-01-29T23:39:23.184Z,63.30
2019-01-29T23:41:51.130Z,63.50
2019-01-29T23:44:18.976Z,63.70
2019-01-29T23:46:46.948Z,63.30
2019-01-29T23:49:14.883Z,63.30
2019-01-29T23:51:42.826Z,63.40
2019-01-29T23:54:10.806Z,63.90
2019-01-29T23:56:38.753Z,63.90
2019-01-29T23:59:07.167Z,63.90
